createdAt,value
2022-07-29T00:04:15.981Z,101149.97
2022-07-29T00:09:16.467Z,101145.03
2022-07-29T00:14:16.374Z,101143.65000000001
2022-07-29T00:19:20.291Z,101158.5
2022-07-29T00:24:16.146Z,101160.14
2022-07-29T00:29:33.759Z,101164.17
2022-07-29T00:34:25.671Z,101160.44
2022-07-29T00:39:15.594Z,101161.22
2022-07-29T00:44:16.207Z,101164.93000000001
2022-07-29T00:49:15.800Z,101157.76
2022-07-29T00:54:16.260Z,101151.37
2022-07-29T00:59:15.567Z,101152.42
2022-07-29T01:04:16.513Z,101149.11
2022-07-29T01:09:17.222Z,101157.95000000001
2022-07-29T01:14:16.665Z,101154.8
2022-07-29T01:19:33.893Z,101153.22
2022-07-29T01:24:32.827Z,101153.49
2022-07-29T01:29:23.558Z,101149.1
2022-07-29T01:34:27.186Z,101148.29999999999
2022-07-29T01:39:19.940Z,101149.28
2022-07-29T01:44:30.739Z,101148.78
2022-07-29T01:49:20.233Z,101155.56
2022-07-29T01:54:20.246Z,101154.64
2022-07-29T01:59:17.569Z,101156.73000000001
2022-07-29T02:04:29.765Z,101160.20999999999
2022-07-29T02:09:17.670Z,101158.76
2022-07-29T02:14:19.023Z,101164.79000000001
2022-07-29T02:19:18.435Z,101161.05
2022-07-29T02:24:18.933Z,101157.28
2022-07-29T02:29:19.894Z,101155.19
2022-07-29T02:34:18.461Z,101154.21
2022-07-29T02:39:17.364Z,101155.66
2022-07-29T02:44:18.336Z,101154.72
2022-07-29T02:49:19.427Z,101157.58
2022-07-29T02:54:22.488Z,101155.61
2022-07-29T02:59:26.137Z,101157.12
2022-07-29T03:04:17.595Z,101156.23000000001
2022-07-29T03:09:20.906Z,101165.7
2022-07-29T03:14:19.625Z,101163.95999999999
2022-07-29T03:19:18.560Z,101165.86
2022-07-29T03:24:27.688Z,101170.46
2022-07-29T03:29:15.436Z,101173.77
2022-07-29T03:34:17.072Z,101175.09
2022-07-29T03:39:20.530Z,101179.85
2022-07-29T03:44:18.456Z,101171.59
2022-07-29T03:49:17.122Z,101158.76
2022-07-29T03:54:16.596Z,101153.49
2022-07-29T03:59:18.006Z,101164.12
2022-07-29T04:04:16.923Z,101165.62
2022-07-29T04:09:15.609Z,101175.58
2022-07-29T04:14:15.887Z,101172.99
2022-07-29T04:19:16.204Z,101174.83
2022-07-29T04:24:16.521Z,101177.37
2022-07-29T04:29:15.548Z,101177.73
2022-07-29T04:34:16.492Z,101176.05
2022-07-29T04:39:20.646Z,101180.84
2022-07-29T04:44:18.277Z,101179.96
2022-07-29T04:49:15.850Z,101179.04999999999
2022-07-29T04:54:16.020Z,101177.5
2022-07-29T04:59:16.115Z,101178.2
2022-07-29T04:59:22.470Z,101178.2
2022-07-29T05:02:35.589Z,101186.41
2022-07-29T05:04:15.590Z,101186.41
2022-07-29T05:05:15.253Z,101190.66
2022-07-29T05:08:35.300Z,101190.66
2022-07-29T05:09:15.453Z,101190.66
2022-07-29T05:14:16.321Z,101184.5
2022-07-29T05:19:15.450Z,101183.87
2022-07-29T05:24:15.676Z,101195.48
2022-07-29T05:29:44.892Z,101190.53
2022-07-29T05:34:16.252Z,101193.36
2022-07-29T05:37:15.370Z,101192.3
2022-07-29T05:39:15.441Z,101192.3
2022-07-29T05:43:53.770Z,101196.47
2022-07-29T05:44:15.772Z,101196.47
2022-07-29T05:46:03.649Z,101195.15
2022-07-29T05:49:27.102Z,101195.15
2022-07-29T05:54:16.285Z,101190.68
2022-07-29T05:59:18.224Z,101183.76
2022-07-29T06:01:21.438Z,101185.35
2022-07-29T06:04:15.711Z,101185.35
2022-07-29T06:09:18.494Z,101176.81
2022-07-29T06:09:38.221Z,101176.81
2022-07-29T06:14:16.040Z,101174.05
2022-07-29T06:18:13.586Z,101173.71
2022-07-29T06:19:15.743Z,101173.71
2022-07-29T06:19:40.263Z,101173.71
2022-07-29T06:24:16.465Z,101170.5
2022-07-29T06:26:37.823Z,101170.26
2022-07-29T06:29:15.733Z,101170.26
2022-07-29T06:30:52.351Z,101166.99
2022-07-29T06:34:16.490Z,101166.99
2022-07-29T06:36:43.725Z,101167.21
2022-07-29T06:39:15.476Z,101167.21
2022-07-29T06:44:17.085Z,101164.58
2022-07-29T06:49:15.592Z,101168.40999999999
2022-07-29T06:54:15.953Z,101166.72
2022-07-29T06:55:07.819Z,101167.04999999999
2022-07-29T06:59:15.489Z,101167.04999999999
2022-07-29T07:04:15.875Z,101166.63
2022-07-29T07:09:15.628Z,101161.85
2022-07-29T07:14:15.750Z,101158.92
2022-07-29T07:19:15.773Z,101162.53
2022-07-29T07:24:16.107Z,101159.83
2022-07-29T07:29:15.803Z,101156.89
2022-07-29T07:34:29.308Z,101152.17
2022-07-29T07:39:15.569Z,101159.06
2022-07-29T07:44:16.205Z,101156.19
2022-07-29T07:49:16.162Z,101145.64
2022-07-29T07:54:15.988Z,101148.35
2022-07-29T07:59:15.878Z,101152.0
2022-07-29T08:04:16.665Z,101155.64
2022-07-29T08:09:28.805Z,101148.56
2022-07-29T08:14:15.793Z,101153.97
2022-07-29T08:19:16.142Z,101145.83
2022-07-29T08:24:25.701Z,101157.9
2022-07-29T08:29:19.912Z,101147.16
2022-07-29T08:34:16.717Z,101135.64
2022-07-29T08:39:15.361Z,101140.7
2022-07-29T08:44:16.363Z,101145.11
2022-07-29T08:49:16.353Z,101140.44
2022-07-29T08:54:17.729Z,101154.02
2022-07-29T08:59:21.991Z,101156.41
2022-07-29T09:04:16.237Z,101146.66
2022-07-29T09:09:15.555Z,101145.03
2022-07-29T09:14:16.749Z,101139.98
2022-07-29T09:19:26.207Z,101131.3
2022-07-29T09:24:16.037Z,101131.26999999999
2022-07-29T09:29:17.705Z,101132.72
2022-07-29T09:34:20.810Z,101133.45000000001
2022-07-29T09:39:27.643Z,101139.28
2022-07-29T09:44:16.266Z,101123.55
2022-07-29T09:49:15.437Z,101124.73
2022-07-29T09:54:25.610Z,101123.36
2022-07-29T09:59:15.928Z,101118.25
2022-07-29T10:09:18.278Z,101112.77
2022-07-29T10:14:15.516Z,101112.48000000001
2022-07-29T10:19:17.338Z,101110.75
2022-07-29T10:24:15.809Z,101106.68
2022-07-29T10:29:15.614Z,101101.01
2022-07-29T10:34:23.353Z,101095.59000000001
2022-07-29T10:39:23.947Z,101088.01
2022-07-29T10:44:19.537Z,101092.19
2022-07-29T10:49:17.532Z,101083.31
2022-07-29T10:54:15.782Z,101085.77
2022-07-29T10:59:24.217Z,101088.76000000001
2022-07-29T11:04:16.103Z,101084.27
2022-07-29T11:09:17.552Z,101083.62
2022-07-29T11:14:17.442Z,101073.72
2022-07-29T11:19:26.351Z,101074.33
2022-07-29T11:24:18.718Z,101073.36
2022-07-29T11:29:20.078Z,101066.08
2022-07-29T11:34:21.295Z,101060.28
2022-07-29T11:39:25.723Z,101058.91
2022-07-29T11:44:16.153Z,101060.25
2022-07-29T11:49:22.075Z,101049.08
2022-07-29T11:59:17.729Z,101054.86
2022-07-29T12:04:15.336Z,101047.70999999999
2022-07-29T12:07:03.582Z,101052.01
2022-07-29T12:09:15.766Z,101041.72
2022-07-29T12:14:26.250Z,101043.33
2022-07-29T12:19:15.193Z,101038.05
2022-07-29T12:24:16.946Z,101045.84
2022-07-29T12:29:20.175Z,101040.94
2022-07-29T12:34:16.068Z,101044.75
2022-07-29T12:39:16.173Z,101036.39
2022-07-29T12:44:15.312Z,101029.31999999999
2022-07-29T12:49:24.886Z,101027.45999999999
2022-07-29T12:54:15.717Z,101017.52
2022-07-29T12:59:22.146Z,101008.09000000001
2022-07-29T13:04:26.735Z,101025.01999999999
2022-07-29T13:09:18.048Z,101019.98
2022-07-29T13:14:30.573Z,101013.78
2022-07-29T13:19:15.181Z,101008.06
2022-07-29T13:24:19.783Z,101004.26
2022-07-29T13:29:15.166Z,101006.33
2022-07-29T13:34:15.448Z,101007.92
2022-07-29T13:39:16.403Z,101001.53
2022-07-29T13:44:15.197Z,100991.03
2022-07-29T13:49:15.404Z,100988.67
2022-07-29T13:52:10.886Z,100990.91
2022-07-29T13:54:15.718Z,100990.91
2022-07-29T13:59:15.370Z,100984.86
2022-07-29T14:04:15.668Z,100981.41
2022-07-29T14:04:23.180Z,100981.41
2022-07-29T14:06:47.243Z,100973.1
2022-07-29T14:09:21.260Z,100973.1
2022-07-29T14:10:27.165Z,100972.58
2022-07-29T14:12:45.330Z,100972.58
2022-07-29T14:14:15.228Z,100972.58
2022-07-29T14:19:15.481Z,100966.35
2022-07-29T14:22:09.298Z,100965.0
2022-07-29T14:24:22.927Z,100965.0
2022-07-29T14:27:39.203Z,100965.01
2022-07-29T14:29:15.164Z,100965.01
2022-07-29T14:31:52.398Z,100965.72
2022-07-29T14:34:15.727Z,100965.72
2022-07-29T14:39:16.498Z,100959.93999999999
2022-07-29T14:44:15.542Z,100956.91
2022-07-29T14:49:15.541Z,100948.27
2022-07-29T14:54:15.197Z,100947.24
2022-07-29T14:59:15.888Z,100942.92
2022-07-29T15:04:15.197Z,100939.56
2022-07-29T15:09:15.402Z,100929.5
2022-07-29T15:14:16.373Z,100930.90999999999
2022-07-29T15:19:15.222Z,100925.25
2022-07-29T15:24:15.998Z,100919.04
2022-07-29T15:29:15.894Z,100913.33
2022-07-29T15:34:15.595Z,100916.71
2022-07-29T15:39:15.171Z,100913.07
2022-07-29T15:44:16.087Z,100912.05
2022-07-29T15:49:20.745Z,100901.15
2022-07-29T15:54:16.582Z,100894.64
2022-07-29T15:59:22.525Z,100900.09
2022-07-29T16:04:16.324Z,100895.2
2022-07-29T16:09:16.174Z,100895.62
2022-07-29T16:14:16.271Z,100891.66
2022-07-29T16:19:15.210Z,100894.36
2022-07-29T16:24:15.303Z,100894.86
2022-07-29T16:29:17.124Z,100892.90999999999
2022-07-29T16:34:15.118Z,100890.12
2022-07-29T16:39:15.087Z,100884.93999999999
2022-07-29T16:44:15.857Z,100888.92
2022-07-29T16:49:19.507Z,100887.79
2022-07-29T16:54:15.481Z,100890.01
2022-07-29T16:59:15.327Z,100897.53
2022-07-29T17:04:15.273Z,100900.22
2022-07-29T17:09:15.551Z,100905.48999999999
2022-07-29T17:14:15.714Z,100905.06
2022-07-29T17:19:15.039Z,100904.96
2022-07-29T17:24:18.139Z,100906.84
2022-07-29T17:29:16.106Z,100907.75
2022-07-29T17:34:15.557Z,100904.52
2022-07-29T17:34:53.113Z,100904.52
2022-07-29T17:37:03.703Z,100905.83
2022-07-29T17:39:15.295Z,100905.83
2022-07-29T17:41:45.703Z,100907.42
2022-07-29T17:44:15.135Z,100907.42
2022-07-29T17:46:59.509Z,100914.73
2022-07-29T17:48:48.535Z,100914.73
2022-07-29T17:49:15.348Z,100914.73
2022-07-29T17:52:19.486Z,100912.94
2022-07-29T17:54:15.276Z,100912.94
2022-07-29T17:55:02.597Z,100914.09
2022-07-29T17:59:15.770Z,100914.09
2022-07-29T18:02:13.663Z,100913.4
2022-07-29T18:04:19.094Z,100913.4
2022-07-29T18:04:22.149Z,100913.4
2022-07-29T18:04:22.735Z,100913.4
2022-07-29T18:07:13.099Z,100910.82
2022-07-29T18:09:15.435Z,100910.82
2022-07-29T18:14:16.059Z,100908.67
2022-07-29T18:19:15.607Z,100906.14
2022-07-29T18:21:15.097Z,100901.97
2022-07-29T18:24:15.049Z,100901.97
2022-07-29T18:28:19.680Z,100911.37999999999
2022-07-29T18:29:15.116Z,100911.37999999999
2022-07-29T18:31:06.386Z,100912.04000000001
2022-07-29T18:34:16.041Z,100912.04000000001
2022-07-29T18:39:20.056Z,100917.74
2022-07-29T18:44:16.624Z,100920.42
2022-07-29T18:49:19.569Z,100925.25
2022-07-29T18:52:13.143Z,100926.11
2022-07-29T18:54:16.380Z,100926.11
2022-07-29T18:59:15.948Z,100925.76000000001
2022-07-29T19:04:16.558Z,100922.67
2022-07-29T19:09:16.241Z,100929.08
2022-07-29T19:14:15.248Z,100937.25
2022-07-29T19:19:16.138Z,100935.24
2022-07-29T19:24:15.594Z,100944.73000000001
2022-07-29T19:29:19.163Z,100949.92
2022-07-29T19:34:15.114Z,100952.35
2022-07-29T19:39:15.218Z,100950.27
2022-07-29T19:44:15.778Z,100945.86
2022-07-29T19:49:15.838Z,100943.61
2022-07-29T19:54:17.151Z,100936.91
2022-07-29T19:59:16.102Z,100941.65000000001
2022-07-29T20:04:15.238Z,100943.20999999999
2022-07-29T20:09:17.060Z,100944.59000000001
2022-07-29T20:14:18.864Z,100939.23
2022-07-29T20:19:15.825Z,100951.19
2022-07-29T20:24:15.149Z,100955.64
2022-07-29T20:29:16.234Z,100954.92
2022-07-29T20:34:16.579Z,100953.95999999999
2022-07-29T20:39:15.190Z,100948.73999999999
2022-07-29T20:44:17.990Z,100943.45
2022-07-29T20:49:15.129Z,100939.62
2022-07-29T20:54:16.771Z,100943.38
2022-07-29T20:59:15.050Z,100935.56999999999
2022-07-29T21:04:15.745Z,100943.86
2022-07-29T21:09:15.229Z,100929.40999999999
2022-07-29T21:14:25.394Z,100932.76
2022-07-29T21:19:14.976Z,100932.24
2022-07-29T21:24:15.298Z,100933.86
2022-07-29T21:29:15.076Z,100931.95
2022-07-29T21:34:15.167Z,100927.64
2022-07-29T21:39:19.794Z,100930.56
2022-07-29T21:44:15.067Z,100922.43999999999
2022-07-29T21:49:15.239Z,100925.99
2022-07-29T21:54:15.890Z,100924.23999999999
2022-07-29T21:59:15.023Z,100929.71
2022-07-29T22:04:15.109Z,100923.55
2022-07-29T22:09:15.681Z,100922.79
2022-07-29T22:14:17.294Z,100925.42
2022-07-29T22:19:15.264Z,100916.94
2022-07-29T22:22:58.687Z,100915.94
2022-07-29T22:24:14.924Z,100915.94
2022-07-29T22:26:57.321Z,100912.57
2022-07-29T22:29:16.664Z,100912.57
2022-07-29T22:34:15.073Z,100911.13
2022-07-29T22:39:15.547Z,100913.23
2022-07-29T22:44:15.083Z,100904.21
2022-07-29T22:49:15.362Z,100901.23
2022-07-29T22:51:46.121Z,100896.88
2022-07-29T22:54:14.949Z,100896.88
2022-07-29T22:54:15.950Z,100896.88
2022-07-29T22:59:15.018Z,100898.05
2022-07-29T23:04:22.618Z,100900.55
2022-07-29T23:09:15.345Z,100899.63
2022-07-29T23:13:41.224Z,100896.26
2022-07-29T23:14:15.650Z,100896.26
2022-07-29T23:19:15.655Z,100894.18
2022-07-29T23:24:14.988Z,100886.97
2022-07-29T23:29:14.958Z,100888.87
2022-07-29T23:34:16.121Z,100886.33
2022-07-29T23:39:14.963Z,100885.92
2022-07-29T23:41:36.678Z,100886.35
2022-07-29T23:44:14.925Z,100886.35
2022-07-29T23:49:16.169Z,100886.55
2022-07-29T23:54:14.944Z,100889.94
2022-07-29T23:59:14.921Z,100881.16
